Flight Track Log - Related Links

Times and Time Zones

All times are in EDT time to prevent confusion due to time zone crossing. See the JZA8753 flight status page for this flight to view local times or setup timezone preferences in your user account.

Time Position Orientation Groundspeed Altitude Reporting Facility
EDT Latitude Longitude Course Direction KTS MPH feet Rate Location/Type
Fri 07:29:07 PM 45.4500 -73.7500 295° West 10 12 100  Level Montreal Center
Fri 07:30:07 PM 45.4500 -73.7500 295° West 50 58 100 650 Level Montreal Center
Fri 07:31:07 PM 45.4833 -73.7167 35° Northeast 110 127 1,400 1,250 Climbing Montreal Center
Fri 07:32:07 PM 45.5167 -73.7500 325° Northwest 140 161 2,600 1,200 Climbing Montreal Center
Fri 07:33:07 PM 45.5333 -73.7833 306° West 150 173 3,800 1,050 Climbing Montreal Center
Fri 07:34:07 PM 45.5500 -73.8667 286° West 180 207 4,700 850 Climbing Montreal Center
Fri 07:35:00 PM 45.6039 -74.1451 295° West  Level FlightAware Approximate
Fri 07:35:07 PM 45.5667 -73.9333 290° West 200 230 5,500  Level Montreal Center
Fri 07:36:07 PM 45.5833 -74.0333 283° West 210 242 6,300 900 Climbing Montreal Center
Fri 07:37:07 PM 45.6000 -74.1000 290° West 210 242 7,300 1,000 Climbing Montreal Center
Fri 07:38:07 PM 45.6333 -74.1667 306° West 200 230 8,300 900 Climbing Montreal Center
Fri 07:39:07 PM 45.6500 -74.2500 286° West 200 230 9,100 800 Climbing Montreal Center
Fri 07:40:07 PM 45.7000 -74.3167 317° Northwest 200 230 9,900 850 Climbing Montreal Center
Fri 07:41:07 PM 45.7167 -74.3667 296° West 210 242 10,800 1,000 Climbing Montreal Center
Fri 07:42:07 PM 45.7500 -74.4333 306° West 210 242 11,900 1,000 Climbing Montreal Center
Fri 07:43:07 PM 45.7833 -74.5000 306° West 200 230 12,800 800 Climbing Montreal Center
Fri 07:44:07 PM 45.8167 -74.5667 306° West 200 230 13,500 600 Climbing Montreal Center
Fri 07:45:07 PM 45.8333 -74.6500 286° West 210 242 14,000 250 Climbing Montreal Center
Fri 07:46:07 PM 45.8500 -74.7333 286° West 230 265 14,000  Level Montreal Center
Fri 07:47:07 PM 45.8667 -74.8333 283° West 240 276 14,000  Level Montreal Center
Fri 07:48:07 PM 45.8833 -74.9333 283° West 240 276 14,000  Level Montreal Center
Fri 07:49:07 PM 45.9000 -75.0000 290° West 230 265 14,000  Level Montreal Center
Fri 07:50:07 PM 45.9500 -75.0833 311° West 230 265 14,000  Level Montreal Center
Fri 07:51:07 PM 46.0167 -75.1167 341° North 230 265 14,000  Level Montreal Center
Fri 07:52:07 PM 46.0667 -75.2000 311° West 230 265 14,000  Level Montreal Center
Fri 07:53:07 PM 46.1167 -75.2500 325° Northwest 230 265 14,000  Level Montreal Center
Fri 07:54:07 PM 46.1667 -75.3167 317° Northwest 230 265 14,000 50 Level Montreal Center
Fri 07:55:07 PM 46.2000 -75.3667 314° West 230 265 14,100 50 Climbing Montreal Center
Fri 07:56:07 PM 46.2500 -75.4333 317° Northwest 230 265 14,100  Level Montreal Center
Fri 07:57:07 PM 46.3000 -75.5000 317° Northwest 230 265 14,100  Level Montreal Center
Fri 07:58:07 PM 46.3500 -75.5500 325° Northwest 230 265 14,100  Level Montreal Center
Fri 07:59:07 PM 46.4000 -75.6333 311° West 230 265 14,100 -50 Level Montreal Center
Fri 08:00:07 PM 46.4500 -75.6833 325° Northwest 230 265 14,000 -50 Descending Montreal Center
Fri 08:01:07 PM 46.5000 -75.7500 317° Northwest 230 265 14,000 50 Level Montreal Center
Fri 08:02:07 PM 46.5333 -75.8000 314° West 230 265 14,100  Climbing Montreal Center
Fri 08:03:07 PM 46.5833 -75.8667 318° Northwest 230 265 14,000 -50 Descending Montreal Center
Fri 08:04:07 PM 46.6333 -75.9167 326° Northwest 230 265 14,000  Level Montreal Center
Fri 08:05:07 PM 46.6833 -76.0000 311° West 230 265 14,000  Level Montreal Center
Fri 08:06:07 PM 46.7333 -76.0333 335° Northwest 230 265 14,000  Level Montreal Center
Fri 08:07:07 PM 46.7833 -76.1167 311° West 230 265 14,000  Level Montreal Center
Fri 08:08:07 PM 46.8333 -76.1667 326° Northwest 230 265 14,000  Level Montreal Center
Fri 08:09:07 PM 46.8833 -76.2333 318° Northwest 230 265 14,000  Level Montreal Center
Fri 08:10:07 PM 46.9167 -76.2833 314° West 230 265 14,000  Level Montreal Center
Fri 08:11:07 PM 46.9667 -76.3667 311° West 230 265 14,000  Level Montreal Center
Fri 08:12:07 PM 47.0167 -76.4167 326° Northwest 230 265 14,000  Level Montreal Center
Fri 08:13:07 PM 47.0667 -76.4833 318° Northwest 230 265 14,000  Level Montreal Center
Fri 08:14:07 PM 47.1167 -76.5333 326° Northwest 230 265 14,000  Level Montreal Center
Fri 08:15:07 PM 47.1667 -76.5833 326° Northwest 230 265 14,000  Level Montreal Center
Fri 08:16:07 PM 47.2167 -76.6667 311° West 230 265 14,000  Level Montreal Center
Fri 08:17:07 PM 47.2667 -76.7167 326° Northwest 230 265 14,000  Level Montreal Center
Fri 08:18:07 PM 47.3167 -76.7833 318° Northwest 230 265 14,000 -50 Level Montreal Center
Fri 08:19:07 PM 47.3667 -76.8333 326° Northwest 230 265 13,900 -500 Descending Montreal Center
Fri 08:20:07 PM 47.4167 -76.9167 312° West 240 276 13,000 -850 Descending Montreal Center
Fri 08:21:07 PM 47.4833 -76.9667 333° Northwest 250 288 12,200 -800 Descending Montreal Center
Fri 08:23:00 PM 47.5847 -77.1099 324° Northwest  Level Estimated
Fri 08:30:00 PM 47.9662 -77.6161 326° Northwest  Level FlightAware Approximate
Fri 08:31:00 PM 48.0280 -77.6779 326° Northwest  Level FlightAware Approximate
Fri 08:32:00 PM 48.0898 -77.7398 326° Northwest  Level FlightAware Approximate
Fri 08:33:00 PM 48.0533 -77.7828 326° Northwest  Level Estimated
Fri 08:34:00 PM 48.0533 -77.7828 165° South  Level Estimated
Fri 08:35:00 PM 48.0533 -77.7828 162° South  Level Estimated
Fri 08:36:00 PM 48.0533 -77.7828 162° South  Level Estimated
Fri 08:37:00 PM 48.0533 -77.7828 162° South  Level Estimated
Fri 08:38:00 PM 48.0533 -77.7828 162° South  Level Estimated
Fri 08:39:00 PM 48.0533 -77.7828 162° South  Level Estimated

Login

Don't have an account? Register now (free) for customized features, flight alerts, and more!